Time;durP1;ratioP1;P1;durP2;ratioP2;P2;SDS_P1;SDS_P2;PMS_P1;PMS_P2;Temp;Humidity;BMP_temperature;BMP_pressure;BME280_temperature;BME280_humidity;BME280_pressure;Samples;Min_cycle;Max_cycle;Signal;HPM_P1;HPM_P2
2021/10/12 00:00:15;;;;;;;5.13;2.42;;;9.70;99.90;;;;;;5145015;27;20306;-84
2021/10/12 00:02:42;;;;;;;6.00;3.60;;;9.80;99.90;;;;;;5127918;27;20270;-83
2021/10/12 00:05:11;;;;;;;8.50;2.45;;;9.70;99.90;;;;;;5122726;27;20258;-83
2021/10/12 00:07:38;;;;;;;4.13;2.40;;;9.70;99.90;;;;;;5124652;27;20201;-83
2021/10/12 00:10:07;;;;;;;4.65;2.83;;;9.60;99.90;;;;;;5133619;27;20225;-83
2021/10/12 00:12:34;;;;;;;6.45;2.88;;;9.60;99.90;;;;;;5135935;27;20283;-83
2021/10/12 00:15:02;;;;;;;7.93;3.40;;;9.60;99.90;;;;;;5125217;27;20206;-83
2021/10/12 00:17:30;;;;;;;3.90;2.60;;;9.60;99.90;;;;;;5141624;27;20225;-83
2021/10/12 00:19:57;;;;;;;12.35;3.20;;;9.60;99.90;;;;;;5123313;28;20301;-83
2021/10/12 00:22:24;;;;;;;7.90;2.60;;;9.60;99.90;;;;;;5118436;27;20205;-83
2021/10/12 00:24:52;;;;;;;7.55;2.40;;;9.60;99.90;;;;;;5117447;27;20261;-83
2021/10/12 00:27:19;;;;;;;4.25;2.50;;;9.60;99.90;;;;;;5126267;27;20225;-84
2021/10/12 00:29:46;;;;;;;8.75;2.70;;;9.60;99.90;;;;;;5131680;27;20214;-83
2021/10/12 00:32:13;;;;;;;9.57;3.42;;;9.60;99.90;;;;;;5126253;27;20632;-83
2021/10/12 00:34:41;;;;;;;6.85;2.22;;;9.60;99.90;;;;;;5125922;27;20209;-84
2021/10/12 00:37:09;;;;;;;3.70;1.80;;;9.60;99.90;;;;;;5122637;27;20198;-83
2021/10/12 00:39:36;;;;;;;5.18;2.88;;;9.60;99.90;;;;;;5127646;27;20225;-83
2021/10/12 00:42:04;;;;;;;6.07;2.67;;;9.60;99.90;;;;;;5124065;27;20208;-83
2021/10/12 00:44:31;;;;;;;5.65;2.53;;;9.60;99.90;;;;;;5125124;27;20426;-83
2021/10/12 00:46:59;;;;;;;16.00;2.65;;;9.60;99.90;;;;;;5130304;27;20217;-83
2021/10/12 00:49:26;;;;;;;7.50;2.80;;;9.70;99.90;;;;;;5135691;27;20281;-82
2021/10/12 00:51:55;;;;;;;8.93;1.98;;;9.70;99.90;;;;;;5129564;28;20213;-83
2021/10/12 00:54:22;;;;;;;9.80;2.83;;;9.70;99.90;;;;;;5135690;27;20226;-82
2021/10/12 00:56:49;;;;;;;6.53;2.58;;;9.80;99.90;;;;;;5120658;27;20198;-83
2021/10/12 00:59:16;;;;;;;5.70;2.08;;;9.90;99.90;;;;;;5125173;27;20229;-83
2021/10/12 01:01:44;;;;;;;5.03;1.85;;;9.90;99.90;;;;;;5123144;27;20197;-82
2021/10/12 01:04:11;;;;;;;6.00;2.25;;;9.90;99.90;;;;;;5129256;28;20215;-82
2021/10/12 01:06:39;;;;;;;7.90;2.42;;;10.00;99.90;;;;;;5129542;28;20229;-83
2021/10/12 01:09:08;;;;;;;7.50;2.78;;;10.00;99.90;;;;;;5126989;27;20222;-83
2021/10/12 01:11:35;;;;;;;5.80;2.63;;;10.10;99.90;;;;;;5122038;27;20204;-83
2021/10/12 01:14:04;;;;;;;4.57;1.98;;;10.10;99.90;;;;;;5123683;28;20194;-83
2021/10/12 01:16:32;;;;;;;3.40;1.73;;;10.20;99.90;;;;;;5129410;27;20209;-83
2021/10/12 01:19:00;;;;;;;6.28;2.42;;;10.20;99.90;;;;;;5119311;27;20287;-83
2021/10/12 01:21:30;;;;;;;11.90;2.53;;;10.20;99.90;;;;;;5123193;27;20221;-83
2021/10/12 01:23:58;;;;;;;15.07;2.63;;;10.30;99.90;;;;;;5122604;28;20221;-82
2021/10/12 01:26:26;;;;;;;9.80;2.65;;;10.20;99.90;;;;;;5121783;28;20201;-83
2021/10/12 01:28:53;;;;;;;7.38;1.85;;;10.30;99.90;;;;;;5120225;28;20222;-83
2021/10/12 01:31:24;;;;;;;5.07;1.65;;;10.30;99.90;;;;;;5121146;28;20204;-82
2021/10/12 01:33:51;;;;;;;7.45;1.92;;;10.40;99.90;;;;;;5119185;28;20211;-83
2021/10/12 01:36:19;;;;;;;5.45;1.88;;;10.40;99.90;;;;;;5130005;27;20192;-83
2021/10/12 01:38:48;;;;;;;5.80;1.98;;;10.40;99.90;;;;;;5125686;28;20289;-83
2021/10/12 01:41:16;;;;;;;11.05;4.15;;;10.40;99.90;;;;;;5121345;28;20203;-83
2021/10/12 01:43:43;;;;;;;4.32;1.42;;;10.40;99.90;;;;;;5119337;28;20270;-83
2021/10/12 01:46:11;;;;;;;9.85;2.05;;;10.50;99.90;;;;;;5115315;28;20209;-83
2021/10/12 01:48:38;;;;;;;10.18;2.63;;;10.50;99.90;;;;;;5118797;28;20227;-83
2021/10/12 01:51:05;;;;;;;5.90;2.60;;;10.50;99.90;;;;;;5126779;28;20194;-82
2021/10/12 01:53:33;;;;;;;4.68;1.80;;;10.60;99.90;;;;;;5126203;28;20223;-83
2021/10/12 01:56:02;;;;;;;3.03;1.30;;;10.60;99.90;;;;;;5128546;28;20277;-83
2021/10/12 01:58:30;;;;;;;4.60;1.30;;;10.60;99.90;;;;;;5124208;28;20282;-83
2021/10/12 02:00:57;;;;;;;10.05;2.15;;;10.60;99.90;;;;;;5117119;28;20242;-82
2021/10/12 02:03:25;;;;;;;8.38;2.42;;;10.70;99.90;;;;;;5111443;28;20208;-82
2021/10/12 02:05:52;;;;;;;2.67;1.80;;;10.70;99.90;;;;;;5112996;28;20265;-83
2021/10/12 02:08:19;;;;;;;3.17;1.88;;;10.70;99.90;;;;;;5116838;27;20237;-83
2021/10/12 02:10:46;;;;;;;5.93;2.00;;;10.70;99.90;;;;;;5127872;27;20237;-82
2021/10/12 02:13:15;;;;;;;5.75;1.60;;;10.80;99.90;;;;;;5117143;27;20322;-82
2021/10/12 02:15:42;;;;;;;11.57;4.43;;;10.80;99.90;;;;;;5116186;28;20207;-83
2021/10/12 02:18:11;;;;;;;7.07;2.20;;;10.70;99.90;;;;;;5117743;27;20307;-83
2021/10/12 02:20:38;;;;;;;7.57;2.40;;;10.80;99.90;;;;;;5127796;27;20646;-83
2021/10/12 02:23:05;;;;;;;8.23;1.90;;;10.80;99.90;;;;;;5122394;27;20206;-83
2021/10/12 02:25:32;;;;;;;9.25;2.00;;;10.70;99.90;;;;;;5125980;27;20563;-83
2021/10/12 02:27:59;;;;;;;14.70;1.92;;;10.70;99.90;;;;;;5134330;28;20206;-83
2021/10/12 02:30:28;;;;;;;5.32;1.95;;;10.70;99.90;;;;;;5131125;27;20289;-82
2021/10/12 02:32:55;;;;;;;3.38;1.95;;;10.70;99.90;;;;;;5118320;27;20286;-83
2021/10/12 02:35:22;;;;;;;4.05;1.70;;;10.70;99.90;;;;;;5115829;28;20210;-83
2021/10/12 02:37:49;;;;;;;5.72;1.70;;;10.70;99.90;;;;;;5129362;27;20201;-83
2021/10/12 02:40:16;;;;;;;6.15;1.52;;;10.70;99.90;;;;;;5140446;27;20210;-83
2021/10/12 02:42:44;;;;;;;5.65;2.22;;;10.70;99.90;;;;;;5121909;27;20205;-83
2021/10/12 02:45:11;;;;;;;7.25;1.98;;;10.70;99.90;;;;;;5128284;27;20315;-83
2021/10/12 02:47:39;;;;;;;5.60;1.65;;;10.70;99.90;;;;;;5127754;27;20219;-82
2021/10/12 02:50:09;;;;;;;11.77;2.10;;;10.70;99.90;;;;;;5125384;27;20226;-84
2021/10/12 02:52:37;;;;;;;6.45;2.85;;;10.50;99.90;;;;;;5131128;27;20207;-83
2021/10/12 02:55:05;;;;;;;5.70;2.53;;;10.70;99.90;;;;;;5121817;28;20248;-83
2021/10/12 02:57:33;;;;;;;6.28;2.00;;;10.70;99.90;;;;;;5120570;27;20201;-83
2021/10/12 03:00:00;;;;;;;3.72;1.75;;;10.80;99.90;;;;;;5126728;27;20260;-83
2021/10/12 03:02:27;;;;;;;4.32;1.70;;;10.80;99.90;;;;;;5122935;27;20201;-83
2021/10/12 03:04:56;;;;;;;4.45;2.15;;;10.80;99.90;;;;;;5131857;27;20199;-83
2021/10/12 03:07:23;;;;;;;5.63;1.58;;;10.80;99.90;;;;;;5133394;27;20288;-84
2021/10/12 03:09:50;;;;;;;9.57;2.53;;;10.80;99.90;;;;;;5128557;27;20304;-83
2021/10/12 03:12:17;;;;;;;7.03;2.15;;;10.90;99.90;;;;;;5140953;27;20204;-83
2021/10/12 03:14:45;;;;;;;7.97;2.15;;;10.90;99.90;;;;;;5141075;27;20321;-84
2021/10/12 03:17:12;;;;;;;7.68;1.85;;;11.00;99.90;;;;;;5134227;27;20594;-84
2021/10/12 03:19:39;;;;;;;5.97;2.50;;;11.00;99.90;;;;;;5136937;27;20222;-83
2021/10/12 03:22:10;;;;;;;7.57;2.38;;;11.10;99.90;;;;;;5137060;27;20232;-83
2021/10/12 03:24:38;;;;;;;13.75;2.35;;;11.10;99.90;;;;;;5137133;27;20190;-84
2021/10/12 03:27:09;;;;;;;5.15;2.05;;;11.10;99.90;;;;;;5124423;27;20202;-84
2021/10/12 03:29:37;;;;;;;5.18;2.22;;;11.10;99.90;;;;;;5122844;28;20239;-84
2021/10/12 03:32:04;;;;;;;9.02;2.55;;;11.10;99.90;;;;;;5154837;27;20201;-83
2021/10/12 03:34:32;;;;;;;5.72;3.20;;;11.10;99.90;;;;;;5140023;28;20207;-83
2021/10/12 03:37:00;;;;;;;4.22;2.45;;;11.20;99.90;;;;;;5139710;28;20244;-83
2021/10/12 03:39:30;;;;;;;5.43;2.70;;;11.20;99.90;;;;;;5141069;27;20354;-83
2021/10/12 03:41:57;;;;;;;2.50;2.00;;;11.20;99.90;;;;;;5132600;27;20221;-83
2021/10/12 03:44:25;;;;;;;4.75;2.55;;;11.30;99.90;;;;;;5127831;27;20214;-83
2021/10/12 03:46:54;;;;;;;2.83;2.00;;;11.20;99.90;;;;;;5130689;27;20266;-83
2021/10/12 03:49:21;;;;;;;4.95;1.70;;;11.20;99.90;;;;;;5136784;27;20237;-83
2021/10/12 03:51:48;;;;;;;2.08;1.40;;;11.10;99.90;;;;;;5127740;27;20229;-83
2021/10/12 03:54:15;;;;;;;2.35;1.10;;;11.10;99.90;;;;;;5127009;27;20210;-83
2021/10/12 03:56:44;;;;;;;4.07;1.33;;;11.10;99.90;;;;;;5125292;27;20200;-83
2021/10/12 03:59:11;;;;;;;4.35;1.33;;;11.10;99.90;;;;;;5134554;27;20202;-83
2021/10/12 04:01:38;;;;;;;3.45;1.23;;;11.00;99.90;;;;;;5120759;27;20205;-84
2021/10/12 04:04:05;;;;;;;1.88;1.45;;;11.00;99.90;;;;;;5137685;27;20197;-83
2021/10/12 04:06:32;;;;;;;3.38;1.15;;;10.90;99.90;;;;;;5131850;27;20223;-84
2021/10/12 04:09:00;;;;;;;2.75;1.13;;;11.00;99.90;;;;;;5130463;28;20269;-84
2021/10/12 04:11:27;;;;;;;2.95;1.30;;;11.00;99.90;;;;;;5122280;27;20281;-84
2021/10/12 04:13:55;;;;;;;3.85;1.65;;;11.00;99.90;;;;;;5136316;27;20228;-83
2021/10/12 04:16:22;;;;;;;4.50;1.60;;;11.00;99.90;;;;;;5129819;27;20672;-84
2021/10/12 04:18:49;;;;;;;6.07;3.33;;;11.00;99.90;;;;;;5125934;27;20245;-85
2021/10/12 04:21:17;;;;;;;4.88;3.55;;;11.00;99.90;;;;;;5125439;27;20552;-84
2021/10/12 04:23:44;;;;;;;5.30;4.15;;;11.00;99.90;;;;;;5119429;27;20305;-84
2021/10/12 04:26:13;;;;;;;8.98;3.45;;;11.10;99.90;;;;;;5127247;27;20259;-84
2021/10/12 04:28:41;;;;;;;5.38;3.13;;;11.20;99.90;;;;;;5112382;28;20236;-83
2021/10/12 04:31:09;;;;;;;6.53;4.10;;;11.10;99.90;;;;;;5122109;28;20226;-84
2021/10/12 04:33:36;;;;;;;7.90;3.63;;;11.10;99.90;;;;;;5123767;27;20208;-85
2021/10/12 04:40:06;;;;;;;5.05;2.88;;;11.10;99.90;;;;;;5132359;27;20209;-84
2021/10/12 05:28:09;;;;;;;4.15;1.35;;;11.00;99.90;;;;;;4941374;29;20227;-84
2021/10/12 05:30:39;;;;;;;3.30;1.38;;;11.00;99.90;;;;;;4963306;28;20217;-84
2021/10/12 05:33:08;;;;;;;1.75;1.35;;;11.00;99.90;;;;;;5045017;28;20201;-84
2021/10/12 05:35:35;;;;;;;2.55;0.95;;;11.00;99.90;;;;;;5118349;27;20197;-83
2021/10/12 05:38:02;;;;;;;1.15;0.80;;;11.00;99.90;;;;;;5119367;27;20206;-83
2021/10/12 05:40:31;;;;;;;3.35;1.20;;;11.00;99.90;;;;;;5125416;28;20215;-84
2021/10/12 05:42:58;;;;;;;4.47;1.27;;;11.00;99.90;;;;;;5118303;28;20208;-83
2021/10/12 05:45:25;;;;;;;5.20;1.38;;;11.00;99.90;;;;;;5127292;28;20292;-84
2021/10/12 05:47:52;;;;;;;4.90;2.05;;;11.10;99.90;;;;;;5137146;28;20282;-83
2021/10/12 05:50:20;;;;;;;6.07;2.90;;;11.10;99.90;;;;;;5135935;28;20203;-82
2021/10/12 05:52:54;;;;;;;3.55;2.05;;;11.20;99.90;;;;;;5137076;28;20186;-84
2021/10/12 05:55:27;;;;;;;3.90;1.83;;;11.20;99.90;;;;;;5126455;28;20205;-84
2021/10/12 05:58:07;;;;;;;11.63;2.95;;;11.20;99.90;;;;;;5140553;27;20202;-83
2021/10/12 06:00:34;;;;;;;3.15;1.70;;;11.20;99.90;;;;;;5133631;28;20210;-83
2021/10/12 06:03:02;;;;;;;2.85;1.45;;;11.20;99.90;;;;;;5130512;28;20203;-84
2021/10/12 06:05:29;;;;;;;3.45;2.15;;;11.20;99.90;;;;;;5135473;28;20214;-84
2021/10/12 06:07:56;;;;;;;7.65;3.15;;;11.20;99.90;;;;;;5136011;28;20205;-84
2021/10/12 06:10:23;;;;;;;3.78;1.80;;;11.10;99.90;;;;;;5137608;28;20260;-84
2021/10/12 06:12:51;;;;;;;3.88;1.70;;;11.10;99.90;;;;;;5137751;28;20199;-84
2021/10/12 06:15:20;;;;;;;4.65;2.10;;;11.10;99.90;;;;;;5137081;28;20237;-83
2021/10/12 06:17:47;;;;;;;2.70;1.30;;;11.00;99.90;;;;;;5122695;28;20264;-84
2021/10/12 06:20:17;;;;;;;2.45;1.55;;;11.20;99.90;;;;;;5131452;28;20286;-84
2021/10/12 06:22:44;;;;;;;6.93;1.50;;;11.20;99.90;;;;;;5119917;28;20203;-83
2021/10/12 06:25:11;;;;;;;2.80;1.30;;;11.30;99.90;;;;;;5132911;28;20251;-84
2021/10/12 06:27:38;;;;;;;4.60;2.00;;;11.40;99.90;;;;;;5136930;28;20199;-84
2021/10/12 06:30:06;;;;;;;2.60;1.27;;;11.40;99.90;;;;;;5135940;28;20217;-84
2021/10/12 06:32:35;;;;;;;3.45;1.35;;;11.30;99.90;;;;;;5127096;28;20213;-84
2021/10/12 06:35:02;;;;;;;3.60;1.58;;;11.40;99.90;;;;;;5130083;28;20233;-83
2021/10/12 06:37:29;;;;;;;3.00;1.90;;;11.50;99.90;;;;;;5126075;28;20206;-84
2021/10/12 06:39:56;;;;;;;2.42;1.30;;;11.50;99.90;;;;;;5122189;28;20226;-85
2021/10/12 06:42:23;;;;;;;3.88;2.03;;;11.60;99.90;;;;;;5122811;28;20215;-84
2021/10/12 06:44:50;;;;;;;6.13;1.85;;;11.70;99.90;;;;;;5125375;28;20744;-84
2021/10/12 06:47:18;;;;;;;2.38;1.63;;;11.70;99.90;;;;;;5117416;28;20206;-84
2021/10/12 06:49:46;;;;;;;3.83;1.98;;;11.70;99.90;;;;;;5131049;28;20645;-84
2021/10/12 06:52:23;;;;;;;3.97;2.25;;;11.70;99.90;;;;;;5119917;28;20206;-84
2021/10/12 06:55:01;;;;;;;7.07;2.08;;;11.80;99.90;;;;;;5111641;28;20215;-84
2021/10/12 06:57:28;;;;;;;8.73;2.17;;;11.80;99.90;;;;;;5121114;27;20528;-84
2021/10/12 06:59:55;;;;;;;5.97;3.05;;;11.90;99.90;;;;;;5112920;28;20209;-84
2021/10/12 07:02:22;;;;;;;7.53;1.88;;;11.90;99.90;;;;;;5123064;27;20202;-85
2021/10/12 07:04:50;;;;;;;2.13;1.25;;;11.90;99.90;;;;;;5119673;27;20270;-83
2021/10/12 07:07:17;;;;;;;2.30;2.10;;;12.00;99.90;;;;;;5116579;28;20194;-84
2021/10/12 07:09:47;;;;;;;6.32;2.03;;;12.00;99.90;;;;;;5128934;27;20219;-84
2021/10/12 07:12:52;;;;;;;3.20;1.40;;;12.00;99.90;;;;;;5125737;27;20202;-84
2021/10/12 07:15:20;;;;;;;6.72;2.20;;;12.00;99.90;;;;;;5126121;27;20235;-84
2021/10/12 07:17:47;;;;;;;5.95;2.47;;;12.10;99.90;;;;;;5122512;27;20548;-84
2021/10/12 07:20:39;;;;;;;11.10;3.05;;;12.20;99.90;;;;;;5128903;27;20232;-84
2021/10/12 07:23:08;;;;;;;4.18;1.85;;;12.20;99.90;;;;;;5122043;28;20645;-84
2021/10/12 07:25:42;;;;;;;2.55;1.75;;;12.40;99.90;;;;;;5131201;27;20258;-83
2021/10/12 07:28:09;;;;;;;5.63;1.83;;;12.60;99.90;;;;;;5126278;28;20636;-84
2021/10/12 07:30:42;;;;;;;11.27;2.50;;;13.00;99.90;;;;;;5112946;27;20208;-85
2021/10/12 07:33:09;;;;;;;3.35;1.88;;;13.20;99.90;;;;;;5114814;27;20205;-84
2021/10/12 07:35:42;;;;;;;3.63;1.65;;;13.40;99.90;;;;;;5124596;27;20307;-84
2021/10/12 07:38:12;;;;;;;4.78;2.05;;;13.40;99.90;;;;;;5131531;27;20196;-83
2021/10/12 07:40:41;;;;;;;3.17;1.92;;;13.50;99.90;;;;;;5119888;27;20206;-83
2021/10/12 07:43:08;;;;;;;9.27;2.03;;;13.80;99.90;;;;;;5129349;28;20204;-83
2021/10/12 07:45:36;;;;;;;3.08;2.78;;;14.00;99.90;;;;;;5135467;28;20198;-83
2021/10/12 07:48:03;;;;;;;3.25;2.22;;;14.00;99.90;;;;;;5144601;27;20193;-83
2021/10/12 07:50:30;;;;;;;4.88;2.05;;;14.00;99.90;;;;;;5135465;28;20218;-82
2021/10/12 07:52:58;;;;;;;8.07;3.58;;;14.10;99.90;;;;;;5148259;27;20203;-84
2021/10/12 07:55:29;;;;;;;6.43;2.30;;;15.50;99.90;;;;;;5135586;27;20209;-84
2021/10/12 07:57:58;;;;;;;4.13;1.80;;;17.10;99.90;;;;;;5140172;27;20783;-84
2021/10/12 08:00:28;;;;;;;6.53;1.77;;;18.40;99.90;;;;;;5138401;27;20459;-84
2021/10/12 08:02:55;;;;;;;4.73;1.80;;;19.60;99.90;;;;;;5136877;27;20426;-83
2021/10/12 08:05:23;;;;;;;4.23;1.83;;;20.40;99.90;;;;;;5136152;27;20474;-82
2021/10/12 08:07:50;;;;;;;7.33;1.57;;;20.90;99.90;;;;;;5134775;28;20465;-81
2021/10/12 08:10:18;;;;;;;6.20;1.60;;;21.30;98.90;;;;;;5130506;28;20519;-83
2021/10/12 08:12:49;;;;;;;11.23;2.00;;;21.60;98.30;;;;;;5131579;28;20451;-84
2021/10/12 08:15:16;;;;;;;5.80;1.50;;;22.10;96.30;;;;;;5135351;28;20495;-82
2021/10/12 08:17:43;;;;;;;4.73;2.00;;;22.10;95.70;;;;;;5127450;28;20960;-84
2021/10/12 08:20:11;;;;;;;5.13;1.40;;;22.10;95.70;;;;;;5136167;27;20462;-83
2021/10/12 08:22:38;;;;;;;4.40;1.63;;;22.00;95.40;;;;;;5130255;28;20446;-83
2021/10/12 08:25:08;;;;;;;6.20;2.53;;;22.10;95.50;;;;;;5127057;28;20436;-82
2021/10/12 08:27:35;;;;;;;11.47;3.23;;;21.90;94.80;;;;;;5136361;28;20434;-83
2021/10/12 08:30:04;;;;;;;7.00;2.00;;;20.90;96.70;;;;;;5136690;28;20482;-83
2021/10/12 08:32:31;;;;;;;4.27;2.10;;;20.20;98.00;;;;;;5122841;28;20503;-82
2021/10/12 08:34:59;;;;;;;7.17;2.30;;;19.30;99.90;;;;;;5133745;28;20443;-82
2021/10/12 08:37:26;;;;;;;5.57;2.17;;;18.50;99.90;;;;;;5130857;28;20478;-82
2021/10/12 08:39:53;;;;;;;4.47;2.50;;;18.00;99.90;;;;;;5131948;28;20477;-82
2021/10/12 08:42:27;;;;;;;8.23;1.55;;;17.50;99.90;;;;;;5133768;28;20462;-82
2021/10/12 08:44:57;;;;;;;7.53;2.60;;;16.90;99.90;;;;;;5138835;27;20215;-82
2021/10/12 08:47:26;;;;;;;12.82;3.58;;;16.40;99.90;;;;;;5134436;28;20203;-83
2021/10/12 08:49:55;;;;;;;5.15;1.98;;;16.10;99.90;;;;;;5131313;28;20206;-82
2021/10/12 08:52:23;;;;;;;4.78;1.90;;;16.20;99.90;;;;;;5131073;28;20250;-83
2021/10/12 08:54:51;;;;;;;7.07;2.03;;;16.70;99.90;;;;;;5141853;27;20275;-81
2021/10/12 08:57:29;;;;;;;8.50;1.90;;;17.60;99.90;;;;;;5139346;27;20518;-82
2021/10/12 08:59:56;;;;;;;3.57;1.17;;;18.80;99.90;;;;;;5133409;28;20443;-83
2021/10/12 09:02:25;;;;;;;7.40;2.47;;;19.00;99.90;;;;;;5136786;28;20802;-81
2021/10/12 09:04:56;;;;;;;8.17;1.67;;;18.90;99.90;;;;;;5141443;27;20427;-81
2021/10/12 09:07:25;;;;;;;3.13;1.40;;;18.50;99.90;;;;;;5137251;27;20514;-82
2021/10/12 09:09:53;;;;;;;9.87;1.60;;;18.10;99.90;;;;;;5143427;27;20554;-83
2021/10/12 09:12:40;;;;;;;4.40;1.77;;;17.60;99.90;;;;;;5137644;27;20449;-83
2021/10/12 09:15:08;;;;;;;3.50;1.50;;;17.40;99.90;;;;;;5135235;28;20457;-82
2021/10/12 09:17:38;;;;;;;4.93;1.53;;;17.20;99.90;;;;;;5142120;27;20446;-82
2021/10/12 09:20:29;;;;;;;6.43;2.17;;;17.20;99.90;;;;;;5137801;28;20660;-82
2021/10/12 09:23:13;;;;;;;4.70;1.77;;;17.40;99.90;;;;;;5140748;27;20180;-83
2021/10/12 09:25:42;;;;;;;3.40;1.13;;;18.20;99.90;;;;;;5142722;27;20443;-83
2021/10/12 09:28:22;;;;;;;6.47;1.63;;;18.50;99.70;;;;;;5159906;27;20446;-83
2021/10/12 09:30:50;;;;;;;6.30;2.13;;;18.50;99.40;;;;;;5136413;27;20539;-82
2021/10/12 09:33:47;;;;;;;3.73;1.43;;;18.50;99.20;;;;;;5137627;28;20479;-83
2021/10/12 09:36:32;;;;;;;5.97;1.77;;;18.50;99.00;;;;;;5119894;28;20463;-82
2021/10/12 09:38:59;;;;;;;5.10;1.63;;;18.40;99.60;;;;;;5138149;28;20510;-82
2021/10/12 09:41:28;;;;;;;5.30;1.60;;;18.30;99.40;;;;;;5140311;28;20442;-82
2021/10/12 09:44:09;;;;;;;5.50;2.10;;;18.30;99.90;;;;;;5136773;28;20451;-82
2021/10/12 09:46:38;;;;;;;3.33;1.40;;;18.10;99.80;;;;;;5135790;28;20443;-81
2021/10/12 09:49:15;;;;;;;5.33;1.20;;;18.00;99.90;;;;;;5139321;28;20451;-82
2021/10/12 09:51:44;;;;;;;5.17;1.87;;;18.40;99.00;;;;;;5123100;28;20453;-84
2021/10/12 09:54:22;;;;;;;8.00;3.73;;;19.00;98.30;;;;;;5139517;28;20509;-82
2021/10/12 09:56:50;;;;;;;7.40;1.73;;;19.60;98.30;;;;;;5136267;28;20443;-82
2021/10/12 09:59:18;;;;;;;3.43;1.90;;;20.20;96.80;;;;;;5136636;28;20459;-83
2021/10/12 10:01:47;;;;;;;5.47;1.57;;;20.80;95.40;;;;;;5154744;28;20505;-82
2021/10/12 10:04:18;;;;;;;5.43;1.90;;;21.20;94.60;;;;;;5144783;28;20436;-82
2021/10/12 10:06:48;;;;;;;1.87;1.10;;;21.10;92.90;;;;;;5144704;28;20414;-82
2021/10/12 10:09:16;;;;;;;3.90;1.10;;;21.00;91.40;;;;;;5137900;28;20479;-83
2021/10/12 10:11:44;;;;;;;5.87;1.60;;;21.10;91.40;;;;;;5147843;28;20451;-82
2021/10/12 10:14:13;;;;;;;5.30;2.77;;;21.10;91.10;;;;;;5137223;28;20442;-82
2021/10/12 10:16:43;;;;;;;6.63;1.23;;;21.20;90.30;;;;;;5137495;28;20438;-82
2021/10/12 10:19:16;;;;;;;5.30;2.20;;;20.80;90.50;;;;;;5137126;28;20451;-82
2021/10/12 10:21:49;;;;;;;4.87;0.90;;;20.70;91.20;;;;;;5136256;28;20427;-83
2021/10/12 10:24:23;;;;;;;5.27;1.37;;;20.80;90.90;;;;;;5135272;28;20449;-83
2021/10/12 10:26:51;;;;;;;2.77;0.93;;;20.60;89.40;;;;;;5136770;28;20451;-82
2021/10/12 10:29:25;;;;;;;2.40;0.90;;;20.20;88.10;;;;;;5129863;28;20477;-80
2021/10/12 10:31:55;;;;;;;3.20;1.10;;;19.70;88.20;;;;;;5140150;27;20430;-83
2021/10/12 10:34:40;;;;;;;2.80;1.10;;;19.50;89.80;;;;;;5133649;28;20451;-84
2021/10/12 10:37:40;;;;;;;6.30;1.97;;;19.00;91.40;;;;;;5132660;27;20463;-83
2021/10/12 10:40:25;;;;;;;3.57;1.53;;;18.30;91.50;;;;;;5136008;28;20470;-84
2021/10/12 10:43:02;;;;;;;5.40;1.27;;;17.80;92.20;;;;;;5133625;28;20430;-83
2021/10/12 10:45:56;;;;;;;3.83;1.30;;;17.90;93.70;;;;;;5134492;28;20450;-84
2021/10/12 10:48:23;;;;;;;4.07;1.53;;;17.90;92.50;;;;;;5092200;28;20483;-84
2021/10/12 10:50:52;;;;;;;1.33;0.67;;;17.90;92.00;;;;;;5137223;27;20466;-83
2021/10/12 10:53:38;;;;;;;4.97;1.40;;;17.80;93.20;;;;;;5126946;27;20450;-82
2021/10/12 10:56:06;;;;;;;5.90;1.33;;;17.80;92.90;;;;;;5140607;27;20455;-84
2021/10/12 10:58:33;;;;;;;4.23;1.20;;;17.70;93.50;;;;;;5136182;27;20439;-83
2021/10/12 11:01:00;;;;;;;6.60;2.00;;;17.80;93.30;;;;;;5147715;27;20423;-84
2021/10/12 11:03:45;;;;;;;5.90;1.60;;;17.80;93.80;;;;;;5122292;28;20432;-83
2021/10/12 11:06:19;;;;;;;7.03;1.40;;;17.70;92.00;;;;;;5141139;27;20443;-83
2021/10/12 11:08:57;;;;;;;2.50;1.47;;;17.60;91.70;;;;;;5136161;28;20509;-82
2021/10/12 11:11:24;;;;;;;5.37;1.40;;;17.50;93.80;;;;;;5128477;27;20473;-83
2021/10/12 11:13:53;;;;;;;4.60;1.97;;;17.30;93.90;;;;;;5139235;27;20426;-82
2021/10/12 11:16:20;;;;;;;5.28;2.00;;;17.00;94.00;;;;;;5138645;28;20430;-83
2021/10/12 11:18:59;;;;;;;4.00;1.60;;;16.50;97.00;;;;;;5137691;28;20213;-82
2021/10/12 11:21:28;;;;;;;2.70;1.65;;;15.80;99.90;;;;;;5137894;28;20231;-83
2021/10/12 11:23:57;;;;;;;4.90;1.73;;;15.40;99.90;;;;;;5136967;28;20225;-83
2021/10/12 11:26:27;;;;;;;5.60;1.85;;;15.10;99.90;;;;;;5135099;28;20588;-84
2021/10/12 11:28:55;;;;;;;2.22;1.40;;;14.90;99.90;;;;;;5134536;28;20217;-83
2021/10/12 11:31:24;;;;;;;3.13;1.05;;;14.80;99.90;;;;;;5134325;28;20220;-83
2021/10/12 11:33:53;;;;;;;5.10;1.85;;;15.00;99.90;;;;;;5135745;27;20212;-83
2021/10/12 11:36:23;;;;;;;2.83;1.35;;;15.30;99.90;;;;;;5129319;27;20213;-83
2021/10/12 11:38:54;;;;;;;3.75;1.33;;;15.50;99.90;;;;;;5147644;27;20228;-83
2021/10/12 11:41:26;;;;;;;3.03;1.15;;;15.70;99.90;;;;;;5133391;27;20208;-83
2021/10/12 11:43:55;;;;;;;4.50;1.77;;;15.80;99.90;;;;;;5130282;28;20242;-83
2021/10/12 11:46:25;;;;;;;2.08;1.08;;;15.70;99.90;;;;;;5134741;28;20226;-83
2021/10/12 11:48:53;;;;;;;3.53;1.10;;;15.70;99.90;;;;;;5136588;28;20273;-84
2021/10/12 11:51:22;;;;;;;9.73;1.42;;;15.60;99.90;;;;;;5142302;27;20214;-84
2021/10/12 11:53:53;;;;;;;2.67;1.83;;;15.60;99.90;;;;;;5150561;27;20185;-83
2021/10/12 11:56:22;;;;;;;4.45;1.52;;;15.70;99.90;;;;;;5142158;27;20189;-84
2021/10/12 11:58:57;;;;;;;3.85;2.28;;;15.90;99.90;;;;;;5141653;27;20212;-83
2021/10/12 12:01:29;;;;;;;4.82;1.23;;;16.00;99.90;;;;;;5142197;27;20206;-82
2021/10/12 12:03:57;;;;;;;2.88;1.20;;;16.10;99.90;;;;;;5138906;27;20261;-82
2021/10/12 12:06:26;;;;;;;6.45;1.45;;;16.20;99.90;;;;;;5137064;27;20188;-82
2021/10/12 12:08:57;;;;;;;4.40;2.00;;;16.30;99.90;;;;;;5131995;28;20229;-83
2021/10/12 12:11:26;;;;;;;2.67;0.88;;;16.40;99.10;;;;;;5134583;28;20565;-82
2021/10/12 12:13:55;;;;;;;2.70;1.33;;;16.50;99.10;;;;;;5131590;28;20553;-84
2021/10/12 12:16:23;;;;;;;6.32;1.85;;;16.50;98.30;;;;;;5139433;27;20439;-83
2021/10/12 12:18:52;;;;;;;4.82;1.40;;;16.60;98.90;;;;;;5137116;27;20240;-83
2021/10/12 12:21:31;;;;;;;4.22;1.75;;;16.70;97.10;;;;;;5137420;27;20248;-83
2021/10/12 12:24:01;;;;;;;4.18;2.00;;;16.80;96.30;;;;;;5143677;27;20183;-83
2021/10/12 12:26:30;;;;;;;8.93;1.33;;;16.70;95.50;;;;;;5134983;28;20295;-83
2021/10/12 12:29:15;;;;;;;5.28;1.25;;;16.60;96.10;;;;;;5125510;28;20210;-82
2021/10/12 12:31:48;;;;;;;2.63;1.10;;;16.40;97.10;;;;;;5132018;27;20216;-83
2021/10/12 12:34:25;;;;;;;2.08;0.88;;;16.50;97.00;;;;;;5126230;27;20285;-83
2021/10/12 12:36:53;;;;;;;1.98;0.80;;;16.50;95.30;;;;;;5140095;27;20265;-82
2021/10/12 12:39:33;;;;;;;3.00;1.20;;;16.40;95.90;;;;;;5138643;27;20212;-83
2021/10/12 12:42:00;;;;;;;9.05;4.25;;;16.20;99.20;;;;;;5139209;27;20280;-83
2021/10/12 12:44:28;;;;;;;2.05;1.20;;;15.90;99.20;;;;;;5140071;27;20215;-83
2021/10/12 12:46:56;;;;;;;2.40;1.10;;;15.70;99.10;;;;;;5147204;27;20215;-82
2021/10/12 12:49:23;;;;;;;2.65;1.38;;;15.40;97.40;;;;;;5133419;27;20222;-83
2021/10/12 12:51:51;;;;;;;3.45;1.73;;;15.40;98.10;;;;;;5122372;27;20232;-83
2021/10/12 12:54:41;;;;;;;1.90;1.15;;;15.50;97.40;;;;;;5133392;27;20476;-83
2021/10/12 12:57:09;;;;;;;4.55;1.45;;;15.40;97.70;;;;;;5138843;27;20222;-83
2021/10/12 12:59:36;;;;;;;2.50;1.05;;;15.40;97.30;;;;;;5134324;27;20289;-83
2021/10/12 13:02:04;;;;;;;4.78;1.40;;;15.40;96.70;;;;;;5145553;27;20263;-85
2021/10/12 13:04:31;;;;;;;1.52;1.13;;;15.40;97.00;;;;;;5142633;27;20185;-83
2021/10/12 13:06:58;;;;;;;4.43;1.10;;;15.30;96.90;;;;;;5133805;27;20181;-84
2021/10/12 13:09:29;;;;;;;4.68;1.35;;;15.10;96.40;;;;;;5147186;27;20216;-83
2021/10/12 13:11:58;;;;;;;3.80;1.10;;;15.10;96.90;;;;;;5133680;27;20209;-83
2021/10/12 13:14:25;;;;;;;4.45;0.90;;;15.00;97.10;;;;;;5139473;27;20273;-83
2021/10/12 13:16:52;;;;;;;5.45;1.05;;;15.00;96.70;;;;;;5130427;27;20229;-83
2021/10/12 13:19:19;;;;;;;6.53;2.25;;;14.90;96.80;;;;;;5135395;27;20221;-83
2021/10/12 13:21:47;;;;;;;2.58;1.25;;;14.90;97.00;;;;;;5134970;27;20333;-83
2021/10/12 13:24:14;;;;;;;2.45;1.00;;;14.90;97.90;;;;;;5135957;27;20211;-83
2021/10/12 13:26:41;;;;;;;3.05;0.80;;;14.80;98.00;;;;;;5135976;27;20205;-82
2021/10/12 13:29:10;;;;;;;3.47;1.42;;;14.90;97.70;;;;;;5128020;27;20220;-83
2021/10/12 13:31:38;;;;;;;3.67;1.00;;;14.80;97.20;;;;;;5147238;27;20263;-83
2021/10/12 13:36:53;;;;;;;4.45;1.33;;;14.80;98.80;;;;;;5137213;27;20216;-82
2021/10/12 13:39:21;;;;;;;7.93;5.95;;;14.80;97.00;;;;;;5138798;28;20215;-85
2021/10/12 13:41:53;;;;;;;6.68;1.50;;;14.90;96.90;;;;;;5132373;27;20206;-84
2021/10/12 13:44:27;;;;;;;7.60;2.45;;;14.80;96.60;;;;;;5112889;28;20199;-83
2021/10/12 13:46:54;;;;;;;4.65;1.90;;;14.70;96.70;;;;;;5118190;28;20209;-83
2021/10/12 13:49:22;;;;;;;3.88;1.10;;;14.50;96.90;;;;;;5113837;28;20263;-83
2021/10/12 13:51:49;;;;;;;3.55;1.45;;;14.40;97.50;;;;;;5125600;28;20221;-83